Time;durP1;ratioP1;P1;durP2;ratioP2;P2;SDS_P1;SDS_P2;PMS_P1;PMS_P2;Temp;Humidity;BMP_temperature;BMP_pressure;BME280_temperature;BME280_humidity;BME280_pressure;Samples;Min_cycle;Max_cycle;Signal;HPM_P1;HPM_P2
2022/06/08 01:01:51;;;;;;;;;;;;;;;14.48;100.00;100963.38;2658314;36;19957;-60
2022/06/08 01:04:20;;;;;;;;;;;;;;;14.36;100.00;100963.63;2613054;36;19981;-59
2022/06/08 01:06:54;;;;;;;;;;;;;;;14.45;100.00;100950.16;2613791;54;20039;-60
2022/06/08 01:09:26;;;;;;;;;;;;;;;14.33;100.00;100958.53;2607191;36;20380;-60
2022/06/08 01:11:58;;;;;;;;;;;;;;;14.36;100.00;100955.50;2613081;36;19959;-60
2022/06/08 01:14:26;;;;;;;;;;;;;;;14.43;100.00;100953.03;2613576;36;19951;-59
2022/06/08 01:16:56;;;;;;;;;;;;;;;14.43;100.00;100953.03;2613779;54;19955;-59
2022/06/08 01:22:07;;;;;;;;;;;;;;;14.33;100.00;100955.81;2613885;31;20431;-60
2022/06/08 01:24:36;;;;;;;;;;;;;;;14.39;100.00;100948.09;2613751;36;20377;-60
2022/06/08 01:27:19;;;;;;;;;;;;;;;14.40;100.00;100944.34;2613148;36;19951;-59
2022/06/08 01:29:52;;;;;;;;;;;;;;;14.45;100.00;100936.63;2613540;36;20349;-62
2022/06/08 01:32:22;;;;;;;;;;;;;;;14.47;100.00;100932.75;2613171;36;20025;-63
2022/06/08 01:37:30;;;;;;;;;;;;;;;14.46;100.00;100922.06;2614686;54;21459;-59
2022/06/08 01:40:15;;;;;;;;;;;;;;;14.55;100.00;100919.22;2612289;36;19947;-60
2022/06/08 01:42:51;;;;;;;;;;;;;;;14.51;100.00;100915.16;2614433;36;20364;-62
2022/06/08 01:48:10;;;;;;;;;;;;;;;14.53;100.00;100923.09;2607739;36;19950;-63
2022/06/08 01:50:44;;;;;;;;;;;;;;;14.61;100.00;100920.50;2608170;36;19954;-60
2022/06/08 01:53:23;;;;;;;;;;;;;;;14.49;100.00;100913.63;2609918;36;20348;-60
2022/06/08 01:58:27;;;;;;;;;;;;;;;14.48;100.00;100906.50;2609132;36;20026;-60
2022/06/08 02:01:01;;;;;;;;;;;;;;;14.42;100.00;100905.28;2611964;31;19955;-62
2022/06/08 02:03:33;;;;;;;;;;;;;;;14.47;100.00;100904.78;2609504;54;19957;-63
2022/06/08 02:08:41;;;;;;;;;;;;;;;14.58;100.00;100895.56;2609091;36;19977;-60
2022/06/08 02:11:14;;;;;;;;;;;;;;;14.65;100.00;100883.94;2606381;36;19954;-59
2022/06/08 02:13:50;;;;;;;;;;;;;;;14.62;100.00;100884.28;2610114;36;19953;-59
2022/06/08 02:16:21;;;;;;;;;;;;;;;14.53;100.00;100879.78;2608866;36;19955;-59
2022/06/08 02:18:51;;;;;;;;;;;;;;;14.52;100.00;100878.09;2602387;36;19992;-60
2022/06/08 02:26:44;;;;;;;;;;;;;;;14.51;100.00;100871.81;2614123;31;19973;-66
2022/06/08 02:29:15;;;;;;;;;;;;;;;14.53;100.00;100874.34;2607727;36;19950;-60
2022/06/08 02:37:01;;;;;;;;;;;;;;;14.55;100.00;100861.53;2609671;54;19953;-62
2022/06/08 02:39:37;;;;;;;;;;;;;;;14.43;100.00;100851.97;2608278;36;20040;-59
2022/06/08 02:42:08;;;;;;;;;;;;;;;14.41;100.00;100856.69;2610039;36;19962;-61
2022/06/08 02:44:37;;;;;;;;;;;;;;;14.35;100.00;100850.94;2610361;36;20411;-60
2022/06/08 02:47:08;;;;;;;;;;;;;;;14.37;100.00;100853.47;2611783;36;19953;-58
2022/06/08 02:49:37;;;;;;;;;;;;;;;14.20;100.00;100841.69;2610751;36;19957;-58
2022/06/08 02:52:07;;;;;;;;;;;;;;;14.23;100.00;100843.25;2608213;36;19984;-59
2022/06/08 02:54:38;;;;;;;;;;;;;;;14.01;100.00;100843.59;2609632;36;20351;-62
2022/06/08 02:59:51;;;;;;;;;;;;;;;14.06;100.00;100835.03;2607718;36;20046;-59
2022/06/08 03:02:21;;;;;;;;;;;;;;;13.99;100.00;100834.81;2606517;36;20523;-59
2022/06/08 03:04:52;;;;;;;;;;;;;;;14.05;100.00;100837.91;2608580;36;19946;-59
2022/06/08 03:07:23;;;;;;;;;;;;;;;13.98;100.00;100824.97;2608435;36;19977;-64
2022/06/08 03:09:55;;;;;;;;;;;;;;;13.92;100.00;100817.50;2608274;36;19958;-60
2022/06/08 03:12:28;;;;;;;;;;;;;;;13.94;100.00;100818.22;2607967;36;19997;-61
2022/06/08 03:14:56;;;;;;;;;;;;;;;13.87;100.00;100825.28;2608427;36;19954;-58
2022/06/08 03:17:33;;;;;;;;;;;;;;;13.88;100.00;100821.53;2610949;36;19969;-62
2022/06/08 03:22:40;;;;;;;;;;;;;;;13.76;100.00;100817.41;2608314;36;20384;-59
2022/06/08 03:25:11;;;;;;;;;;;;;;;13.78;100.00;100815.38;2607602;36;20929;-64
2022/06/08 03:27:39;;;;;;;;;;;;;;;13.73;100.00;100825.84;2610010;36;20344;-58
2022/06/08 03:32:47;;;;;;;;;;;;;;;13.73;100.00;100823.97;2607734;36;20085;-58
2022/06/08 03:35:16;;;;;;;;;;;;;;;13.71;100.00;100819.75;2607797;36;19946;-62
2022/06/08 03:37:44;;;;;;;;;;;;;;;13.78;100.00;100820.78;2608082;36;19954;-59
2022/06/08 03:40:15;;;;;;;;;;;;;;;13.86;100.00;100812.75;2606814;36;19978;-58
2022/06/08 03:42:43;;;;;;;;;;;;;;;13.87;100.00;100813.56;2606909;36;19953;-60
2022/06/08 03:45:12;;;;;;;;;;;;;;;13.85;100.00;100816.44;2607875;36;19954;-59
2022/06/08 03:47:43;;;;;;;;;;;;;;;13.83;100.00;100818.47;2608646;36;19951;-60
2022/06/08 03:52:55;;;;;;;;;;;;;;;13.97;100.00;100819.72;2608091;36;19993;-59
2022/06/08 03:55:27;;;;;;;;;;;;;;;14.09;100.00;100814.91;2608262;36;19947;-61
2022/06/08 04:00:27;;;;;;;;;;;;;;;14.13;100.00;100817.16;2606546;36;20792;-61
2022/06/08 04:02:56;;;;;;;;;;;;;;;14.11;100.00;100824.56;2607401;36;19958;-59
2022/06/08 04:05:24;;;;;;;;;;;;;;;14.15;100.00;100822.41;2607346;36;19970;-59
2022/06/08 04:10:17;;;;;;;;;;;;;;;14.29;100.00;100813.66;2608136;36;19977;-59
2022/06/08 04:12:48;;;;;;;;;;;;;;;14.32;100.00;100818.75;2606405;36;19951;-61
2022/06/08 04:15:41;;;;;;;;;;;;;;;14.41;100.00;100822.34;2611168;36;19947;-61
2022/06/08 04:18:04;;;;;;;;;;;;;;;14.34;100.00;100816.75;2607170;31;19955;-59
2022/06/08 04:20:32;;;;;;;;;;;;;;;14.35;100.00;100821.16;2610032;36;19951;-58
2022/06/08 04:25:34;;;;;;;;;;;;;;;14.57;100.00;100821.56;2606893;36;20072;-59
2022/06/08 04:28:06;;;;;;;;;;;;;;;14.61;100.00;100822.97;2608433;36;20386;-58
2022/06/08 04:30:48;;;;;;;;;;;;;;;14.57;100.00;100826.97;2605376;54;20047;-59
2022/06/08 04:33:18;;;;;;;;;;;;;;;14.85;100.00;100822.19;2608138;36;20352;-60
2022/06/08 04:38:28;;;;;;;;;;;;;;;14.75;100.00;100817.94;2607494;31;19950;-59
2022/06/08 04:40:56;;;;;;;;;;;;;;;14.74;100.00;100822.53;2607439;31;19979;-60
2022/06/08 04:43:30;;;;;;;;;;;;;;;14.77;100.00;100832.19;2609778;36;20348;-61
2022/06/08 04:45:59;;;;;;;;;;;;;;;14.85;100.00;100821.34;2611701;36;20344;-61
2022/06/08 04:48:27;;;;;;;;;;;;;;;14.84;100.00;100816.94;2608043;31;20534;-59
2022/06/08 04:51:05;;;;;;;;;;;;;;;14.78;100.00;100817.59;2609832;36;19981;-60
2022/06/08 04:53:33;;;;;;;;;;;;;;;14.87;100.00;100819.34;2609663;31;20522;-59
2022/06/08 04:56:01;;;;;;;;;;;;;;;14.97;100.00;100811.91;2608229;36;19962;-60
2022/06/08 04:58:32;;;;;;;;;;;;;;;15.03;100.00;100804.97;2607124;36;19978;-61
2022/06/08 05:01:01;;;;;;;;;;;;;;;15.12;100.00;100809.41;2608460;36;19954;-61
2022/06/08 05:03:30;;;;;;;;;;;;;;;15.15;100.00;100798.22;2611113;54;20124;-61
2022/06/08 05:05:58;;;;;;;;;;;;;;;15.50;100.00;100800.75;2606424;36;19955;-60
2022/06/08 05:08:27;;;;;;;;;;;;;;;15.60;100.00;100796.00;2607351;31;19950;-59
2022/06/08 05:10:57;;;;;;;;;;;;;;;15.82;100.00;100782.81;2610713;39;20347;-63
2022/06/08 05:13:29;;;;;;;;;;;;;;;15.77;100.00;100777.88;2607034;36;20362;-59
2022/06/08 05:16:01;;;;;;;;;;;;;;;15.91;100.00;100777.16;2606230;31;19962;-62
2022/06/08 05:18:29;;;;;;;;;;;;;;;15.74;100.00;100776.34;2605846;36;20074;-63
2022/06/08 05:23:36;;;;;;;;;;;;;;;15.82;100.00;100770.06;2609548;36;20427;-64
2022/06/08 05:26:05;;;;;;;;;;;;;;;15.87;100.00;100767.69;2613643;36;19954;-64
2022/06/08 05:28:33;;;;;;;;;;;;;;;15.96;100.00;100754.09;2607607;31;20381;-64
2022/06/08 05:31:04;;;;;;;;;;;;;;;16.04;100.00;100749.47;2608688;36;20364;-60
2022/06/08 05:33:33;;;;;;;;;;;;;;;16.20;100.00;100745.03;2608422;54;19951;-60
2022/06/08 05:36:01;;;;;;;;;;;;;;;16.27;100.00;100754.16;2606854;31;19951;-61
2022/06/08 05:38:29;;;;;;;;;;;;;;;16.29;100.00;100747.50;2609219;36;20379;-62
2022/06/08 05:43:33;;;;;;;;;;;;;;;16.44;100.00;100744.94;2605258;36;20046;-58
2022/06/08 05:48:38;;;;;;;;;;;;;;;16.49;100.00;100741.66;2614451;36;19957;-59
2022/06/08 05:51:06;;;;;;;;;;;;;;;16.37;100.00;100726.78;2610169;36;19981;-58
2022/06/08 05:56:00;;;;;;;;;;;;;;;16.63;100.00;100737.34;2610059;54;20045;-59
2022/06/08 06:03:38;;;;;;;;;;;;;;;16.56;100.00;100731.78;2610736;36;19973;-59
2022/06/08 06:11:20;;;;;;;;;;;;;;;16.61;100.00;100729.38;2613182;39;20356;-61
2022/06/08 06:13:48;;;;;;;;;;;;;;;16.68;100.00;100729.50;2609381;36;19950;-59
2022/06/08 06:16:17;;;;;;;;;;;;;;;17.01;100.00;100734.75;2612349;36;19951;-61
2022/06/08 06:18:47;;;;;;;;;;;;;;;16.86;100.00;100722.91;2611620;36;19947;-64
2022/06/08 06:21:19;;;;;;;;;;;;;;;16.90;100.00;100721.56;2613241;54;19951;-60
2022/06/08 06:23:48;;;;;;;;;;;;;;;17.22;100.00;100712.28;2612262;36;19966;-61
2022/06/08 06:26:24;;;;;;;;;;;;;;;17.48;100.00;100703.72;2613236;36;19946;31
2022/06/08 06:28:52;;;;;;;;;;;;;;;17.82;100.00;100702.34;2613673;36;19980;-62
2022/06/08 06:31:22;;;;;;;;;;;;;;;17.56;100.00;100699.22;2613466;36;20394;-61
2022/06/08 06:33:53;;;;;;;;;;;;;;;17.45;100.00;100695.94;2612934;36;19951;-64
2022/06/08 06:36:21;;;;;;;;;;;;;;;17.23;100.00;100688.69;2613272;47;19969;-60
2022/06/08 06:41:35;;;;;;;;;;;;;;;17.49;100.00;100693.66;2612229;47;19973;-62
2022/06/08 06:46:29;;;;;;;;;;;;;;;17.69;100.00;100689.38;2612423;36;19953;-60
2022/06/08 06:49:00;;;;;;;;;;;;;;;18.00;100.00;100682.09;2613608;36;19947;-60
2022/06/08 06:51:28;;;;;;;;;;;;;;;17.96;100.00;100672.59;2613595;36;19950;-60
2022/06/08 06:53:56;;;;;;;;;;;;;;;17.96;100.00;100672.59;2612543;36;19978;-60
2022/06/08 06:56:27;;;;;;;;;;;;;;;18.53;100.00;100676.44;2612178;36;19962;-60
2022/06/08 06:58:55;;;;;;;;;;;;;;;18.28;100.00;100670.50;2613582;54;19953;-60
2022/06/08 07:06:39;;;;;;;;;;;;;;;18.32;100.00;100671.81;2613899;54;19946;-60
2022/06/08 07:09:11;;;;;;;;;;;;;;;18.49;100.00;100664.22;2613391;36;19939;31
2022/06/08 07:11:40;;;;;;;;;;;;;;;18.60;100.00;100665.59;2612660;36;20400;-59
2022/06/08 07:16:46;;;;;;;;;;;;;;;18.81;100.00;100651.13;2614062;54;19945;-60
2022/06/08 07:19:15;;;;;;;;;;;;;;;18.62;100.00;100649.88;2612462;54;19947;-60
2022/06/08 07:34:34;;;;;;;;;;;;;;;19.78;100.00;100627.72;2611695;36;19953;-60
2022/06/08 07:37:02;;;;;;;;;;;;;;;20.05;100.00;100616.91;2612068;54;20026;-62
2022/06/08 07:39:30;;;;;;;;;;;;;;;19.98;100.00;100616.03;2613113;54;19951;-62
2022/06/08 07:41:59;;;;;;;;;;;;;;;19.76;100.00;100614.25;2613815;54;19950;-63
2022/06/08 07:44:27;;;;;;;;;;;;;;;19.75;100.00;100609.00;2621771;31;19947;-59
2022/06/08 07:46:55;;;;;;;;;;;;;;;19.61;100.00;100605.38;2612845;36;19946;-59
2022/06/08 07:49:37;;;;;;;;;;;;;;;19.65;100.00;100609.34;2612582;36;20399;-59
2022/06/08 07:52:09;;;;;;;;;;;;;;;19.80;100.00;100608.41;2611986;36;20343;-59
2022/06/08 08:02:36;;;;;;;;;;;;;;;20.04;100.00;100605.16;2612559;36;20471;-59
2022/06/08 08:05:09;;;;;;;;;;;;;;;19.66;100.00;100605.59;2614952;36;19955;-60
2022/06/08 08:07:41;;;;;;;;;;;;;;;19.71;100.00;100610.44;2612896;36;19954;-59
2022/06/08 08:10:11;;;;;;;;;;;;;;;19.72;100.00;100604.78;2631484;36;19955;-61
2022/06/08 08:18:14;;;;;;;;;;;;;;;19.32;100.00;100604.56;2640267;36;19961;-59
2022/06/08 08:23:17;;;;;;;;;;;;;;;19.69;100.00;100609.81;2613462;36;19953;-61
2022/06/08 08:25:46;;;;;;;;;;;;;;;19.75;100.00;100600.81;2614268;39;20766;-59
2022/06/08 08:28:15;;;;;;;;;;;;;;;19.90;100.00;100604.25;2613460;36;19946;-59
2022/06/08 08:33:49;;;;;;;;;;;;;;;19.67;100.00;100600.97;2615510;54;19954;-59
2022/06/08 08:36:18;;;;;;;;;;;;;;;19.41;100.00;100599.78;2614759;36;19958;-59
2022/06/08 08:38:49;;;;;;;;;;;;;;;19.55;100.00;100603.41;2608879;36;20432;-61
2022/06/08 08:46:27;;;;;;;;;;;;;;;19.85;100.00;100590.38;2613558;31;20359;-60
2022/06/08 08:48:56;;;;;;;;;;;;;;;19.69;100.00;100590.69;2613439;36;19947;-61
2022/06/08 08:56:30;;;;;;;;;;;;;;;19.77;100.00;100587.78;2609149;36;19953;-59
2022/06/08 09:01:27;;;;;;;;;;;;;;;19.83;100.00;100587.00;2612383;36;20428;-59
2022/06/08 09:03:57;;;;;;;;;;;;;;;19.80;100.00;100581.94;2616025;36;19957;-61
2022/06/08 09:06:26;;;;;;;;;;;;;;;19.75;100.00;100573.50;2612849;36;19947;-59
2022/06/08 09:09:00;;;;;;;;;;;;;;;19.38;100.00;100578.34;2615276;31;20489;-61
2022/06/08 09:14:22;;;;;;;;;;;;;;;19.28;100.00;100583.34;2612198;36;20340;-61
2022/06/08 09:16:52;;;;;;;;;;;;;;;19.11;100.00;100588.25;2614120;36;19970;-59
2022/06/08 09:19:28;;;;;;;;;;;;;;;19.12;100.00;100593.50;2613941;36;19954;-59
2022/06/08 09:21:59;;;;;;;;;;;;;;;19.01;100.00;100588.63;2613528;36;20000;-60
2022/06/08 09:26:57;;;;;;;;;;;;;;;19.05;100.00;100589.88;2612969;36;19993;-59
2022/06/08 09:32:04;;;;;;;;;;;;;;;19.27;100.00;100587.94;2613588;39;20362;-60
2022/06/08 09:34:34;;;;;;;;;;;;;;;19.23;100.00;100587.50;2614028;31;20140;-60
2022/06/08 09:37:09;;;;;;;;;;;;;;;19.46;100.00;100580.91;2616612;36;20406;-60
2022/06/08 09:39:38;;;;;;;;;;;;;;;19.60;100.00;100587.28;2613527;31;19950;-60
2022/06/08 09:42:12;;;;;;;;;;;;;;;19.67;100.00;100581.84;2613823;36;19953;-60
2022/06/08 09:44:48;;;;;;;;;;;;;;;19.88;100.00;100579.03;2614355;36;20477;-59
2022/06/08 09:53:04;;;;;;;;;;;;;;;20.04;100.00;100575.09;2613464;36;19954;-59
2022/06/08 09:55:41;;;;;;;;;;;;;;;20.19;100.00;100577.66;2613283;36;19990;-59
2022/06/08 09:58:20;;;;;;;;;;;;;;;20.21;100.00;100570.09;2614002;36;19954;-60
2022/06/08 10:00:52;;;;;;;;;;;;;;;20.06;100.00;100563.97;2614328;36;19953;-60
2022/06/08 10:03:32;;;;;;;;;;;;;;;20.29;100.00;100569.06;2607489;31;19977;-58
2022/06/08 10:06:05;;;;;;;;;;;;;;;20.33;100.00;100567.59;2613591;36;19951;-59
2022/06/08 10:08:40;;;;;;;;;;;;;;;20.35;100.00;100568.25;2612948;36;20669;-60
2022/06/08 10:11:34;;;;;;;;;;;;;;;20.64;100.00;100564.28;2613885;36;19950;-59
2022/06/08 10:16:47;;;;;;;;;;;;;;;20.24;100.00;100549.72;2628298;36;19946;-63
2022/06/08 10:21:56;;;;;;;;;;;;;;;20.25;100.00;100546.75;2611535;36;20029;-59
2022/06/08 10:24:27;;;;;;;;;;;;;;;20.38;100.00;100551.41;2613004;31;19957;-60
2022/06/08 10:27:00;;;;;;;;;;;;;;;20.25;100.00;100540.47;2612853;31;19950;-58
2022/06/08 10:29:32;;;;;;;;;;;;;;;20.54;100.00;100541.09;2612472;36;20384;-60
2022/06/08 10:32:04;;;;;;;;;;;;;;;20.48;100.00;100534.63;2612961;36;19946;-57
2022/06/08 10:34:38;;;;;;;;;;;;;;;20.46;100.00;100531.22;2613804;36;19942;-59
2022/06/08 10:37:12;;;;;;;;;;;;;;;20.59;100.00;100536.69;2613743;36;19959;-59
2022/06/08 10:39:43;;;;;;;;;;;;;;;20.35;100.00;100534.59;2617501;36;19950;-61
2022/06/08 10:45:24;;;;;;;;;;;;;;;19.81;100.00;100544.56;2617430;36;20463;-61
2022/06/08 10:47:57;;;;;;;;;;;;;;;19.55;100.00;100555.16;2613648;36;19954;-62
2022/06/08 10:56:32;;;;;;;;;;;;;;;17.93;100.00;100580.41;2612424;36;19970;-64
2022/06/08 10:59:13;;;;;;;;;;;;;;;17.91;100.00;100582.47;2613531;36;20403;-60
2022/06/08 11:01:57;;;;;;;;;;;;;;;17.86;100.00;100583.03;2613857;54;20398;-61
2022/06/08 11:04:47;;;;;;;;;;;;;;;17.75;100.00;100584.34;2629941;36;19954;-59
2022/06/08 11:07:17;;;;;;;;;;;;;;;17.61;100.00;100582.50;2607800;31;19953;-64
2022/06/08 11:09:52;;;;;;;;;;;;;;;17.64;100.00;100587.56;2613340;36;19946;-64
2022/06/08 11:12:31;;;;;;;;;;;;;;;17.66;100.00;100593.66;2611474;31;20407;-58
2022/06/08 11:15:01;;;;;;;;;;;;;;;17.67;100.00;100589.91;2613461;47;19951;-59
2022/06/08 11:20:07;;;;;;;;;;;;;;;17.93;100.00;100585.84;2616351;36;19974;-62
2022/06/08 11:22:39;;;;;;;;;;;;;;;17.91;100.00;100590.66;2613146;36;19950;-63
2022/06/08 11:27:41;;;;;;;;;;;;;;;18.09;100.00;100592.94;2612611;36;19945;-59
2022/06/08 11:30:29;;;;;;;;;;;;;;;17.92;100.00;100586.88;2611960;36;20360;-60
2022/06/08 11:33:15;;;;;;;;;;;;;;;18.31;100.00;100586.47;2614530;31;20005;-60
2022/06/08 11:36:10;;;;;;;;;;;;;;;18.56;100.00;100578.78;2614027;36;19950;-59
2022/06/08 11:38:50;;;;;;;;;;;;;;;18.41;100.00;100569.81;2614900;31;20431;-60
2022/06/08 11:44:12;;;;;;;;;;;;;;;18.31;100.00;100572.84;2614937;36;19947;-61
2022/06/08 11:46:42;;;;;;;;;;;;;;;18.10;100.00;100568.25;2614618;31;19953;-59
2022/06/08 11:49:25;;;;;;;;;;;;;;;18.30;100.00;100570.31;2614227;54;19974;-61
2022/06/08 11:51:53;;;;;;;;;;;;;;;18.17;100.00;100563.72;2614938;36;20566;-58
2022/06/08 11:54:25;;;;;;;;;;;;;;;18.25;100.00;100565.47;2614405;36;19958;-60
2022/06/08 11:59:24;;;;;;;;;;;;;;;18.20;100.00;100566.03;2613801;36;19950;-58
2022/06/08 12:01:54;;;;;;;;;;;;;;;18.37;100.00;100569.38;2617175;36;19954;-60
2022/06/08 12:04:25;;;;;;;;;;;;;;;18.48;100.00;100561.72;2612701;36;19947;-59
2022/06/08 12:09:39;;;;;;;;;;;;;;;17.66;100.00;100561.81;2612568;54;19971;-64
2022/06/08 12:12:14;;;;;;;;;;;;;;;17.90;100.00;100556.28;2613510;36;20323;-58
2022/06/08 12:14:45;;;;;;;;;;;;;;;17.76;100.00;100547.94;2614556;54;19954;-61
2022/06/08 12:17:26;;;;;;;;;;;;;;;17.64;100.00;100550.31;2612736;36;19993;-61
2022/06/08 12:19:55;;;;;;;;;;;;;;;17.69;100.00;100547.84;2613305;36;19975;-62
2022/06/08 12:22:24;;;;;;;;;;;;;;;17.62;100.00;100551.53;2612729;36;19962;-58
2022/06/08 12:27:24;;;;;;;;;;;;;;;17.84;100.00;100539.66;2613156;54;19962;-59
2022/06/08 12:29:57;;;;;;;;;;;;;;;18.18;100.00;100542.75;2612466;36;19973;-60
2022/06/08 12:37:37;;;;;;;;;;;;;;;17.50;100.00;100540.28;2612659;39;20447;-62
2022/06/08 12:50:51;;;;;;;;;;;;;;;17.37;100.00;100549.09;2614156;36;20357;-60
2022/06/08 12:55:57;;;;;;;;;;;;;;;16.99;100.00;100541.88;2612354;36;19950;-59
2022/06/08 13:03:40;;;;;;;;;;;;;;;17.39;100.00;100543.47;2639890;36;20535;-59
2022/06/08 13:11:30;;;;;;;;;;;;;;;17.04;100.00;100549.47;2614426;36;20006;-58
2022/06/08 13:14:01;;;;;;;;;;;;;;;16.89;100.00;100554.91;2612573;36;20669;-57
2022/06/08 13:19:03;;;;;;;;;;;;;;;17.02;100.00;100551.56;2613883;54;19953;-59
2022/06/08 13:26:43;;;;;;;;;;;;;;;17.25;100.00;100547.91;2612719;54;20452;-64
2022/06/08 13:31:50;;;;;;;;;;;;;;;17.58;100.00;100545.63;2615655;36;20408;-59
2022/06/08 13:34:20;;;;;;;;;;;;;;;17.41;100.00;100542.25;2609278;36;19957;-59
2022/06/08 13:44:39;;;;;;;;;;;;;;;17.06;100.00;100550.13;2613782;54;19947;-57
2022/06/08 13:47:11;;;;;;;;;;;;;;;17.14;100.00;100544.59;2612152;36;19946;-58
2022/06/08 13:52:14;;;;;;;;;;;;;;;17.16;100.00;100544.41;2612538;36;20010;-57
2022/06/08 14:25:02;;;;;;;;;;;;;;;16.51;100.00;100532.31;2612532;54;20889;-55
2022/06/08 14:27:31;;;;;;;;;;;;;;;16.55;100.00;100529.03;2612660;36;19946;-55
2022/06/08 14:35:02;;;;;;;;;;;;;;;16.17;100.00;100525.44;2612220;36;19954;-52
2022/06/08 14:37:33;;;;;;;;;;;;;;;16.24;100.00;100523.69;2612696;36;19958;-57
2022/06/08 14:40:03;;;;;;;;;;;;;;;16.32;100.00;100515.47;2612098;36;19962;-59
2022/06/08 14:42:31;;;;;;;;;;;;;;;16.32;100.00;100517.34;2610049;36;19957;-49
2022/06/08 14:45:01;;;;;;;;;;;;;;;16.25;100.00;100517.22;2612468;36;19954;-50
2022/06/08 14:47:29;;;;;;;;;;;;;;;16.22;100.00;100518.44;2612472;36;19950;-53
2022/06/08 15:07:09;;;;;;;;;;;;;;;16.09;100.00;100519.06;2612908;39;20324;-52
2022/06/08 15:09:38;;;;;;;;;;;;;;;16.02;100.00;100509.94;2613032;36;19953;-55
2022/06/08 15:12:10;;;;;;;;;;;;;;;16.08;100.00;100516.50;2612419;31;20053;-52
2022/06/08 15:54:23;;;;;;;;;;;;;;;16.43;100.00;100498.75;2611939;36;19946;-50
2022/06/08 16:14:29;;;;;;;;;;;;;;;16.19;100.00;100496.22;2612969;36;19985;-51
2022/06/08 16:24:29;;;;;;;;;;;;;;;16.24;100.00;100491.94;2613025;54;19947;-53
2022/06/08 16:26:57;;;;;;;;;;;;;;;16.16;100.00;100497.44;2613695;54;20930;-54
2022/06/08 16:29:29;;;;;;;;;;;;;;;16.26;100.00;100492.59;2612048;36;19958;-55
2022/06/08 16:39:45;;;;;;;;;;;;;;;16.03;100.00;100497.19;2612037;36;19975;-57
2022/06/08 16:42:13;;;;;;;;;;;;;;;16.01;100.00;100500.09;2612730;36;19974;-51
2022/06/08 16:49:59;;;;;;;;;;;;;;;15.99;100.00;100507.59;2613404;54;19954;-54
2022/06/08 16:52:28;;;;;;;;;;;;;;;16.03;100.00;100508.91;2617748;36;19982;-57
2022/06/08 16:54:56;;;;;;;;;;;;;;;16.08;100.00;100511.09;2612194;36;19950;-51
2022/06/08 17:00:06;;;;;;;;;;;;;;;16.17;100.00;100514.59;2613424;36;19974;-53
2022/06/08 17:02:35;;;;;;;;;;;;;;;16.16;100.00;100507.47;2618126;31;19962;-54
2022/06/08 17:05:05;;;;;;;;;;;;;;;16.15;100.00;100511.19;2613754;36;19951;-53
2022/06/08 17:07:34;;;;;;;;;;;;;;;16.23;100.00;100525.56;2614208;31;19946;-51
2022/06/08 17:10:02;;;;;;;;;;;;;;;16.30;100.00;100517.53;2613812;36;19954;-52
2022/06/08 17:12:30;;;;;;;;;;;;;;;16.25;100.00;100519.94;2611816;31;19957;-62
2022/06/08 17:14:58;;;;;;;;;;;;;;;16.27;100.00;100523.34;2614208;36;19967;-51
2022/06/08 17:17:27;;;;;;;;;;;;;;;16.38;100.00;100524.75;2612688;36;19950;-54
2022/06/08 17:22:27;;;;;;;;;;;;;;;16.31;100.00;100527.34;2612963;36;19954;-56
2022/06/08 17:30:12;;;;;;;;;;;;;;;16.29;100.00;100530.25;2622676;36;20001;-54
2022/06/08 17:53:33;;;;;;;;;;;;;;;16.23;100.00;100541.00;2612702;54;19973;-56
2022/06/08 18:03:57;;;;;;;;;;;;;;;16.28;100.00;100534.00;2613878;54;19981;-54
2022/06/08 18:06:44;;;;;;;;;;;;;;;16.35;100.00;100539.53;2618162;36;19954;-55
2022/06/08 18:14:15;;;;;;;;;;;;;;;16.35;100.00;100544.97;2613669;36;19950;-56
2022/06/08 18:16:45;;;;;;;;;;;;;;;16.39;100.00;100543.59;2614878;31;19978;-55
2022/06/08 18:19:13;;;;;;;;;;;;;;;16.37;100.00;100542.09;2613462;36;19990;-56
2022/06/08 18:24:32;;;;;;;;;;;;;;;16.31;100.00;100548.25;2630006;36;20407;-55
2022/06/08 18:27:11;;;;;;;;;;;;;;;16.46;100.00;100557.31;2613336;39;20139;-55
2022/06/08 18:29:50;;;;;;;;;;;;;;;16.33;100.00;100555.19;2614630;47;19951;-55
2022/06/08 18:32:19;;;;;;;;;;;;;;;16.33;100.00;100557.91;2613322;36;19951;-63
2022/06/08 18:37:13;;;;;;;;;;;;;;;16.42;100.00;100570.38;2612467;54;19958;-51
2022/06/08 18:39:41;;;;;;;;;;;;;;;16.40;100.00;100564.31;2610862;54;19946;-59
2022/06/08 18:42:10;;;;;;;;;;;;;;;16.45;100.00;100572.75;2615072;31;19962;-59
2022/06/08 18:47:20;;;;;;;;;;;;;;;16.46;100.00;100581.75;2619584;36;19958;-52
2022/06/08 18:52:24;;;;;;;;;;;;;;;16.35;100.00;100596.59;2617292;36;19946;-55
2022/06/08 18:57:39;;;;;;;;;;;;;;;16.27;100.00;100596.66;2611293;36;19949;-56
2022/06/08 19:00:08;;;;;;;;;;;;;;;16.19;100.00;100599.41;2615957;36;19995;-57
2022/06/08 19:07:59;;;;;;;;;;;;;;;16.09;100.00;100600.50;2612960;54;19962;-57
2022/06/08 19:10:31;;;;;;;;;;;;;;;16.18;100.00;100609.44;2615550;36;19950;-57
2022/06/08 19:13:00;;;;;;;;;;;;;;;16.18;100.00;100608.56;2611192;36;19986;-57
2022/06/08 19:15:30;;;;;;;;;;;;;;;16.22;100.00;100605.31;2612911;36;20412;-57
2022/06/08 19:20:46;;;;;;;;;;;;;;;16.11;100.00;100612.00;2614694;36;19994;-58
2022/06/08 19:26:05;;;;;;;;;;;;;;;15.98;100.00;100613.63;2613874;36;19954;-56
2022/06/08 19:33:48;;;;;;;;;;;;;;;15.80;100.00;100622.88;2615329;54;19987;-57
2022/06/08 19:36:32;;;;;;;;;;;;;;;15.89;100.00;100626.38;2614418;54;19945;-57
2022/06/08 19:41:45;;;;;;;;;;;;;;;15.91;100.00;100610.75;2611579;36;20478;-57
2022/06/08 19:44:14;;;;;;;;;;;;;;;15.87;100.00;100618.44;2612169;31;20570;-58
2022/06/08 19:46:46;;;;;;;;;;;;;;;15.81;100.00;100631.84;2613213;54;19946;-55
2022/06/08 19:49:15;;;;;;;;;;;;;;;15.88;100.00;100635.53;2609811;54;20319;-55
2022/06/08 19:51:44;;;;;;;;;;;;;;;15.84;100.00;100634.19;2612206;54;19957;-58
2022/06/08 19:54:14;;;;;;;;;;;;;;;15.79;100.00;100636.63;2607798;36;19954;-57
2022/06/08 19:56:49;;;;;;;;;;;;;;;15.76;100.00;100649.47;2611961;54;20133;-58
2022/06/08 20:01:56;;;;;;;;;;;;;;;15.66;100.00;100647.97;2612489;54;19973;-63
2022/06/08 20:04:29;;;;;;;;;;;;;;;15.70;100.00;100646.63;2612442;36;19954;-60
2022/06/08 20:07:03;;;;;;;;;;;;;;;15.72;100.00;100648.13;2604348;36;21626;31
2022/06/08 20:14:33;;;;;;;;;;;;;;;15.56;100.00;100664.44;2611091;36;21014;-58
2022/06/08 20:17:02;;;;;;;;;;;;;;;15.59;100.00;100664.09;2615216;31;20472;-60
2022/06/08 20:19:36;;;;;;;;;;;;;;;15.58;100.00;100667.84;2608880;36;20063;-61
2022/06/08 20:26:59;;;;;;;;;;;;;;;15.57;100.00;100656.13;2612926;54;20747;-58
2022/06/08 20:42:44;;;;;;;;;;;;;;;15.31;100.00;100661.81;2612968;54;19946;-63
2022/06/08 20:53:04;;;;;;;;;;;;;;;15.10;100.00;100665.03;2614177;36;19978;-56
2022/06/08 20:55:33;;;;;;;;;;;;;;;15.10;100.00;100678.59;2615750;36;19985;-56
2022/06/08 20:58:08;;;;;;;;;;;;;;;15.04;100.00;100671.97;2613231;36;19945;-62
2022/06/08 21:00:39;;;;;;;;;;;;;;;15.01;100.00;100672.31;2612464;36;19968;-58
2022/06/08 21:03:11;;;;;;;;;;;;;;;15.07;100.00;100676.22;2615119;31;20424;-58
2022/06/08 21:08:35;;;;;;;;;;;;;;;15.09;100.00;100679.63;2605354;31;19970;-60
2022/06/08 21:21:25;;;;;;;;;;;;;;;14.89;100.00;100693.50;2616661;36;19970;31
2022/06/08 21:23:57;;;;;;;;;;;;;;;14.92;100.00;100703.16;2623338;31;19977;-60
2022/06/08 21:29:07;;;;;;;;;;;;;;;14.85;100.00;100694.84;2613768;36;19979;-58
2022/06/08 21:36:51;;;;;;;;;;;;;;;14.71;100.00;100699.06;2613432;36;20416;-57
2022/06/08 21:47:03;;;;;;;;;;;;;;;14.70;100.00;100691.94;2613042;54;19985;31
2022/06/08 21:49:32;;;;;;;;;;;;;;;14.64;100.00;100691.78;2615450;36;19977;-56
2022/06/08 21:52:01;;;;;;;;;;;;;;;14.58;100.00;100695.13;2611671;54;20110;-56
2022/06/08 21:54:36;;;;;;;;;;;;;;;14.57;100.00;100696.13;2612059;36;19953;-57